Time;durP1;ratioP1;P1;durP2;ratioP2;P2;SDS_P1;SDS_P2;PMS_P1;PMS_P2;Temp;Humidity;BMP_temperature;BMP_pressure;BME280_temperature;BME280_humidity;BME280_pressure;Samples;Min_cycle;Max_cycle;Signal;HPM_P1;HPM_P2
2022/06/04 00:00:17;;;;;;;8.45;5.82;;;;;;;;;;6249875;22;20039;-82
2022/06/04 00:02:44;;;;;;;12.85;6.03;;;;;;;;;;6224489;22;20003;-81
2022/06/04 00:05:10;;;;;;;12.23;5.97;;;;;;;;;;6276194;22;20454;-82
2022/06/04 00:07:36;;;;;;;11.95;6.20;;;;;;;;;;6276094;22;20057;-82
2022/06/04 00:15:39;;;;;;;12.30;6.60;;;;;;;;;;6253473;22;20106;-82
2022/06/04 00:18:04;;;;;;;9.05;6.15;;;;;;;;;;6198631;22;20407;-82
2022/06/04 00:20:30;;;;;;;10.88;6.30;;;;;;;;;;6254198;22;20007;-81
2022/06/04 00:22:59;;;;;;;10.73;6.30;;;;;;;;;;6259150;22;20007;-82
2022/06/04 00:25:25;;;;;;;11.13;6.47;;;;;;;;;;6290664;22;20071;-82
2022/06/04 00:27:51;;;;;;;14.98;6.38;;;;;;;;;;6252054;22;20006;-82
2022/06/04 00:30:16;;;;;;;11.07;6.28;;;;;;;;;;6223232;22;20481;-82
2022/06/04 00:32:42;;;;;;;13.63;6.97;;;;;;;;;;6248786;22;20007;-83
2022/06/04 00:35:08;;;;;;;8.50;6.70;;;;;;;;;;6275701;22;20430;-82
2022/06/04 00:37:34;;;;;;;14.60;6.95;;;;;;;;;;6248641;22;20085;-82
2022/06/04 00:40:00;;;;;;;10.38;6.43;;;;;;;;;;6248808;22;20082;-82
2022/06/04 00:42:25;;;;;;;8.45;5.93;;;;;;;;;;6275373;22;19999;-82
2022/06/04 00:45:28;;;;;;;11.88;7.20;;;;;;;;;;6275772;22;20004;-82
2022/06/04 00:47:54;;;;;;;10.88;6.60;;;;;;;;;;6279355;22;19996;-82
2022/06/04 00:50:20;;;;;;;9.27;6.05;;;;;;;;;;6248569;22;20006;-83
2022/06/04 00:52:46;;;;;;;12.45;6.32;;;;;;;;;;6223373;22;20003;-82
2022/06/04 00:55:12;;;;;;;11.32;6.60;;;;;;;;;;6223568;22;20004;-82
2022/06/04 00:57:58;;;;;;;10.93;6.90;;;;;;;;;;6275306;22;20461;-83
2022/06/04 01:00:35;;;;;;;14.05;6.95;;;;;;;;;;6275271;22;20004;-83
2022/06/04 01:03:16;;;;;;;13.15;6.43;;;;;;;;;;6275376;22;20010;-83
2022/06/04 01:06:06;;;;;;;11.50;6.85;;;;;;;;;;6248475;22;20057;-82
2022/06/04 01:08:43;;;;;;;13.80;7.60;;;;;;;;;;6278592;22;20422;-84
2022/06/04 01:11:11;;;;;;;10.65;7.35;;;;;;;;;;6283437;22;20438;-83
2022/06/04 01:14:11;;;;;;;12.45;7.20;;;;;;;;;;6275099;22;20000;-82
2022/06/04 01:16:58;;;;;;;10.25;7.78;;;;;;;;;;6255678;22;20008;-83
2022/06/04 01:19:36;;;;;;;13.90;9.35;;;;;;;;;;6273859;22;20000;-83
2022/06/04 01:22:07;;;;;;;12.50;8.45;;;;;;;;;;6275220;22;20415;-83
2022/06/04 01:24:48;;;;;;;13.52;9.20;;;;;;;;;;6275197;22;20012;-81
2022/06/04 01:27:16;;;;;;;13.70;7.97;;;;;;;;;;6275005;22;20007;-82
2022/06/04 01:29:50;;;;;;;16.15;9.45;;;;;;;;;;6248181;22;20061;-82
2022/06/04 01:32:31;;;;;;;11.82;10.20;;;;;;;;;;6281931;22;20029;-81
2022/06/04 01:35:16;;;;;;;13.93;10.88;;;;;;;;;;6273654;22;20064;-82
2022/06/04 01:37:49;;;;;;;20.08;11.25;;;;;;;;;;6273754;22;20057;-82
2022/06/04 01:43:02;;;;;;;14.23;10.10;;;;;;;;;;6273652;22;20060;-82
2022/06/04 01:45:27;;;;;;;16.17;9.15;;;;;;;;;;6273405;22;20082;-82
2022/06/04 01:47:53;;;;;;;15.73;9.45;;;;;;;;;;6247917;22;19996;-83
2022/06/04 01:50:22;;;;;;;14.93;9.45;;;;;;;;;;6251560;22;20004;-82
2022/06/04 01:52:48;;;;;;;12.50;8.65;;;;;;;;;;6252362;22;20037;-83
2022/06/04 01:55:21;;;;;;;15.45;9.48;;;;;;;;;;6235753;22;20461;-82
2022/06/04 01:57:53;;;;;;;13.30;9.32;;;;;;;;;;6301891;22;20023;-83
2022/06/04 02:00:22;;;;;;;18.05;9.55;;;;;;;;;;6301337;22;20018;-82
2022/06/04 02:03:20;;;;;;;12.20;9.20;;;;;;;;;;6276846;22;20008;-81
2022/06/04 02:05:53;;;;;;;12.57;8.57;;;;;;;;;;6287581;22;20034;-83
2022/06/04 02:08:43;;;;;;;15.65;9.43;;;;;;;;;;6249559;22;20034;-83
2022/06/04 02:11:13;;;;;;;12.85;8.75;;;;;;;;;;6273397;22;20000;-82
2022/06/04 02:13:39;;;;;;;11.77;8.68;;;;;;;;;;6247806;22;19996;-83
2022/06/04 02:16:08;;;;;;;15.88;9.65;;;;;;;;;;6273306;22;20018;-83
2022/06/04 02:18:34;;;;;;;20.88;12.77;;;;;;;;;;6286127;22;20000;-83
2022/06/04 02:21:00;;;;;;;19.50;12.98;;;;;;;;;;6275022;22;20010;-82
2022/06/04 02:23:25;;;;;;;18.27;13.13;;;;;;;;;;6274813;22;20432;-82
2022/06/04 02:25:51;;;;;;;21.50;12.43;;;;;;;;;;6274850;22;20014;-82
2022/06/04 02:28:17;;;;;;;19.90;12.60;;;;;;;;;;6274508;22;20070;-81
2022/06/04 02:30:51;;;;;;;17.60;10.88;;;;;;;;;;6273194;22;20003;-82
2022/06/04 02:33:20;;;;;;;23.25;11.52;;;;;;;;;;6274740;22;20061;-82
2022/06/04 02:35:56;;;;;;;21.45;10.98;;;;;;;;;;6273683;22;20004;-82
2022/06/04 02:38:48;;;;;;;20.75;11.38;;;;;;;;;;6273549;22;20074;-82
2022/06/04 02:41:30;;;;;;;16.77;10.85;;;;;;;;;;6258849;22;20011;-82
2022/06/04 02:44:01;;;;;;;15.25;10.15;;;;;;;;;;6248222;22;20007;-82
2022/06/04 02:46:40;;;;;;;17.42;10.10;;;;;;;;;;6248432;22;20008;-83
2022/06/04 02:49:09;;;;;;;16.20;10.55;;;;;;;;;;6273105;22;20099;-83
2022/06/04 02:51:40;;;;;;;15.57;10.00;;;;;;;;;;6273729;22;20007;-83
2022/06/04 02:54:10;;;;;;;14.63;10.00;;;;;;;;;;6274722;22;20039;-83
2022/06/04 02:56:35;;;;;;;17.42;9.68;;;;;;;;;;6225033;22;20004;-83
2022/06/04 02:59:05;;;;;;;13.98;9.43;;;;;;;;;;6276417;22;20445;-82
2022/06/04 03:01:32;;;;;;;13.15;9.70;;;;;;;;;;6275560;22;20007;-82
2022/06/04 03:03:57;;;;;;;17.42;10.00;;;;;;;;;;6254173;22;20003;-82
2022/06/04 03:06:30;;;;;;;11.95;9.65;;;;;;;;;;6278073;22;20003;-82
2022/06/04 03:08:56;;;;;;;12.25;9.32;;;;;;;;;;6275319;22;20083;-82
2022/06/04 03:11:21;;;;;;;13.65;9.20;;;;;;;;;;6249416;22;20008;-83
2022/06/04 03:13:47;;;;;;;12.05;9.40;;;;;;;;;;6276592;22;20010;-83
2022/06/04 03:16:14;;;;;;;17.73;11.57;;;;;;;;;;6277049;22;20081;-83
2022/06/04 03:18:39;;;;;;;16.02;11.20;;;;;;;;;;6278198;22;20350;-83
2022/06/04 03:21:05;;;;;;;18.13;12.05;;;;;;;;;;6276944;22;20000;-82
2022/06/04 03:23:31;;;;;;;15.40;10.50;;;;;;;;;;6277133;22;20034;-82
2022/06/04 03:25:56;;;;;;;15.45;10.23;;;;;;;;;;6281365;22;20000;-82
2022/06/04 03:28:21;;;;;;;25.45;10.15;;;;;;;;;;6278230;22;20004;-83
2022/06/04 03:30:47;;;;;;;18.05;10.02;;;;;;;;;;6276488;22;19999;-82
2022/06/04 03:33:12;;;;;;;14.95;10.00;;;;;;;;;;6249540;22;20039;-83
2022/06/04 03:35:38;;;;;;;12.98;10.07;;;;;;;;;;6276722;22;20438;-83
2022/06/04 03:38:04;;;;;;;14.30;9.30;;;;;;;;;;6249588;22;20427;-83
2022/06/04 03:40:29;;;;;;;14.90;9.05;;;;;;;;;;6276379;22;20075;-83
2022/06/04 03:42:55;;;;;;;15.25;8.70;;;;;;;;;;6249478;22;20007;-83
2022/06/04 03:45:20;;;;;;;13.35;8.02;;;;;;;;;;6276340;22;20004;-83
2022/06/04 03:47:45;;;;;;;9.82;7.32;;;;;;;;;;6278268;22;20370;-83
2022/06/04 03:50:15;;;;;;;13.98;7.53;;;;;;;;;;6280831;22;20019;-82
2022/06/04 03:52:42;;;;;;;10.20;7.13;;;;;;;;;;6247196;22;20004;-82
2022/06/04 03:55:08;;;;;;;11.15;7.40;;;;;;;;;;6281018;22;20027;-83
2022/06/04 03:57:37;;;;;;;12.93;8.40;;;;;;;;;;6275872;22;20000;-82
2022/06/04 04:00:24;;;;;;;13.95;8.73;;;;;;;;;;6224234;22;20015;-81
2022/06/04 04:02:53;;;;;;;14.90;9.07;;;;;;;;;;6276677;22;20007;-83
2022/06/04 04:05:21;;;;;;;9.52;8.13;;;;;;;;;;6224170;22;20008;-83
2022/06/04 04:07:46;;;;;;;17.08;8.90;;;;;;;;;;6276685;22;20023;-83
2022/06/04 04:10:12;;;;;;;13.27;8.35;;;;;;;;;;6275769;22;20430;-82
2022/06/04 04:12:39;;;;;;;11.57;7.55;;;;;;;;;;6276190;22;20006;-83
2022/06/04 04:15:05;;;;;;;13.80;7.57;;;;;;;;;;6275863;22;20074;-82
2022/06/04 04:17:31;;;;;;;17.50;7.85;;;;;;;;;;6277869;22;20008;-82
2022/06/04 04:19:58;;;;;;;9.77;7.40;;;;;;;;;;6276566;22;19999;-82
2022/06/04 04:22:24;;;;;;;14.70;10.43;;;;;;;;;;6248378;22;20000;-82
2022/06/04 04:24:49;;;;;;;10.95;9.02;;;;;;;;;;6275760;22;20031;-82
2022/06/04 04:27:15;;;;;;;15.25;8.88;;;;;;;;;;6275903;22;20057;-82
2022/06/04 04:29:41;;;;;;;12.85;9.00;;;;;;;;;;6276144;22;20003;-82
2022/06/04 04:32:07;;;;;;;15.90;10.15;;;;;;;;;;6249348;22;20004;-82
2022/06/04 04:34:33;;;;;;;14.25;9.20;;;;;;;;;;6198877;22;20034;-83
2022/06/04 04:36:58;;;;;;;10.63;8.20;;;;;;;;;;6248603;22;20010;-83
2022/06/04 04:39:23;;;;;;;10.43;8.15;;;;;;;;;;6276859;22;20000;-83
2022/06/04 04:41:49;;;;;;;14.85;7.95;;;;;;;;;;6278521;22;20033;-82
2022/06/04 04:44:14;;;;;;;12.63;8.07;;;;;;;;;;6275219;22;20010;-83
2022/06/04 04:46:40;;;;;;;16.58;8.07;;;;;;;;;;6248514;22;20010;-82
2022/06/04 04:49:05;;;;;;;14.77;8.10;;;;;;;;;;6248964;22;20584;-83
2022/06/04 04:51:34;;;;;;;12.25;8.65;;;;;;;;;;6276068;22;20018;-83
2022/06/04 04:53:59;;;;;;;11.10;8.18;;;;;;;;;;6225294;22;19999;-83
2022/06/04 04:56:25;;;;;;;15.48;9.07;;;;;;;;;;6249014;22;20414;-83
2022/06/04 04:58:50;;;;;;;11.13;8.13;;;;;;;;;;6276137;22;20003;-82
2022/06/04 05:01:21;;;;;;;11.35;8.27;;;;;;;;;;6275774;22;20030;-83
2022/06/04 05:03:47;;;;;;;12.75;8.32;;;;;;;;;;6278089;22;20433;-82
2022/06/04 05:06:13;;;;;;;15.02;8.10;;;;;;;;;;6223971;22;20003;-83
2022/06/04 05:08:39;;;;;;;11.65;8.13;;;;;;;;;;6275487;22;20358;-82
2022/06/04 05:11:07;;;;;;;13.38;8.43;;;;;;;;;;6275574;22;20010;-82
2022/06/04 05:13:33;;;;;;;12.55;8.13;;;;;;;;;;6248283;22;20079;-83
2022/06/04 05:15:59;;;;;;;17.33;8.82;;;;;;;;;;6247878;22;20014;-82
2022/06/04 05:18:24;;;;;;;12.82;7.40;;;;;;;;;;6275543;22;20000;-82
2022/06/04 05:20:49;;;;;;;11.48;7.65;;;;;;;;;;6198531;22;20011;-81
2022/06/04 05:23:15;;;;;;;11.43;8.10;;;;;;;;;;6275201;22;19999;-82
2022/06/04 05:25:40;;;;;;;13.73;7.70;;;;;;;;;;6277328;22;20358;-82
2022/06/04 05:28:06;;;;;;;11.68;7.70;;;;;;;;;;6248626;22;20311;-81
2022/06/04 05:30:31;;;;;;;15.35;7.95;;;;;;;;;;6275229;22;20039;-82
2022/06/04 05:32:57;;;;;;;9.93;7.88;;;;;;;;;;6248139;22;20077;-82
2022/06/04 05:35:22;;;;;;;11.23;7.53;;;;;;;;;;6274752;22;19996;-81
2022/06/04 05:37:48;;;;;;;12.60;7.80;;;;;;;;;;6275090;22;20003;-82
2022/06/04 05:40:13;;;;;;;9.20;7.22;;;;;;;;;;6223173;22;20094;-82
2022/06/04 05:42:38;;;;;;;10.02;7.35;;;;;;;;;;6275035;22;20026;-82
2022/06/04 05:45:04;;;;;;;13.43;7.85;;;;;;;;;;6275564;22;19999;-81
2022/06/04 05:47:30;;;;;;;11.23;8.57;;;;;;;;;;6250602;22;20004;-82
2022/06/04 05:49:55;;;;;;;10.40;7.82;;;;;;;;;;6284882;22;20004;-81
2022/06/04 05:52:21;;;;;;;9.50;7.07;;;;;;;;;;6201979;22;20007;-83
2022/06/04 05:54:46;;;;;;;10.30;7.25;;;;;;;;;;6223750;22;20015;-82
2022/06/04 05:57:12;;;;;;;11.52;7.68;;;;;;;;;;6274884;22;20003;-83
2022/06/04 05:59:37;;;;;;;11.95;6.93;;;;;;;;;;6274856;22;20437;-83
2022/06/04 06:02:03;;;;;;;11.02;7.10;;;;;;;;;;6274848;22;20004;-83
2022/06/04 06:04:28;;;;;;;10.95;7.30;;;;;;;;;;6275621;22;19999;-83
2022/06/04 06:06:57;;;;;;;17.17;6.93;;;;;;;;;;6276714;22;20003;-82
2022/06/04 06:09:23;;;;;;;10.15;7.47;;;;;;;;;;6249397;22;20047;-82
2022/06/04 06:11:49;;;;;;;9.65;7.97;;;;;;;;;;6283585;22;20055;-82
2022/06/04 06:14:14;;;;;;;15.15;7.50;;;;;;;;;;6214636;22;20004;-83
2022/06/04 06:16:42;;;;;;;11.82;7.65;;;;;;;;;;6278788;22;20043;-82
2022/06/04 06:19:07;;;;;;;12.00;7.60;;;;;;;;;;6301959;22;20008;-82
2022/06/04 06:21:33;;;;;;;11.40;7.72;;;;;;;;;;6302921;22;20035;-82
2022/06/04 06:23:59;;;;;;;8.90;7.50;;;;;;;;;;6297283;22;20053;-82
2022/06/04 06:26:30;;;;;;;11.60;8.38;;;;;;;;;;6274132;22;20462;-82
2022/06/04 06:28:56;;;;;;;16.73;8.45;;;;;;;;;;6277881;22;20007;-83
2022/06/04 06:31:23;;;;;;;13.73;7.85;;;;;;;;;;6225282;22;20008;-82
2022/06/04 06:33:48;;;;;;;10.90;8.07;;;;;;;;;;6253709;22;20006;-82
2022/06/04 06:36:15;;;;;;;13.93;8.10;;;;;;;;;;6277428;22;20004;-82
2022/06/04 06:38:40;;;;;;;14.95;8.68;;;;;;;;;;6277239;22;20023;-82
2022/06/04 06:41:06;;;;;;;11.50;7.82;;;;;;;;;;6276875;22;20442;-82
2022/06/04 06:46:11;;;;;;;11.63;8.77;;;;;;;;;;6277407;22;20307;-82
2022/06/04 06:48:38;;;;;;;12.48;8.38;;;;;;;;;;6274887;22;20495;-82
2022/06/04 06:51:07;;;;;;;16.92;9.00;;;;;;;;;;6276521;22;20000;-82
2022/06/04 06:53:33;;;;;;;15.52;8.95;;;;;;;;;;6249659;22;20461;-82
2022/06/04 06:56:12;;;;;;;16.25;9.00;;;;;;;;;;6276667;22;19999;-83
2022/06/04 06:58:37;;;;;;;19.02;8.98;;;;;;;;;;6276338;22;20004;-82
2022/06/04 07:01:03;;;;;;;15.98;8.77;;;;;;;;;;6276626;22;20511;-82
2022/06/04 07:03:29;;;;;;;17.38;8.65;;;;;;;;;;6276275;22;20034;-82
2022/06/04 07:05:55;;;;;;;10.95;8.20;;;;;;;;;;6276412;22;20430;-82
2022/06/04 07:08:21;;;;;;;14.80;9.05;;;;;;;;;;6275003;22;20010;-82
2022/06/04 07:10:47;;;;;;;15.85;8.00;;;;;;;;;;6274975;22;19999;-82
2022/06/04 07:13:12;;;;;;;11.18;8.10;;;;;;;;;;6275097;22;20097;-82
2022/06/04 07:15:38;;;;;;;13.48;8.02;;;;;;;;;;6276227;22;20004;-82
2022/06/04 07:18:03;;;;;;;19.52;8.63;;;;;;;;;;6276582;22;20000;-82
2022/06/04 07:20:29;;;;;;;16.33;8.00;;;;;;;;;;6279696;22;20337;-83
2022/06/04 07:22:54;;;;;;;14.13;8.85;;;;;;;;;;6276391;22;19996;-83
2022/06/04 07:25:21;;;;;;;13.85;8.45;;;;;;;;;;6276188;22;20004;-83
2022/06/04 07:27:47;;;;;;;13.27;8.02;;;;;;;;;;6276107;22;20034;-83
2022/06/04 07:30:12;;;;;;;10.90;8.18;;;;;;;;;;6276129;22;20435;-83
2022/06/04 07:32:37;;;;;;;13.35;7.90;;;;;;;;;;6276335;22;20441;-83
2022/06/04 07:35:03;;;;;;;10.55;7.50;;;;;;;;;;6276546;22;19999;-82
2022/06/04 07:37:29;;;;;;;11.57;7.28;;;;;;;;;;6223922;22;20004;-82
2022/06/04 07:39:55;;;;;;;13.00;7.85;;;;;;;;;;6198855;22;20003;-83
2022/06/04 07:42:20;;;;;;;19.50;7.18;;;;;;;;;;6279633;22;19996;-82
2022/06/04 07:44:45;;;;;;;16.20;7.07;;;;;;;;;;6276105;22;20015;-82
2022/06/04 07:47:12;;;;;;;14.27;7.15;;;;;;;;;;6276077;22;20034;-83
2022/06/04 07:49:37;;;;;;;13.52;7.38;;;;;;;;;;6224180;22;20011;-83
2022/06/04 07:52:03;;;;;;;9.35;6.85;;;;;;;;;;6275996;22;20184;-83
2022/06/04 07:54:31;;;;;;;9.93;6.70;;;;;;;;;;6249431;22;20015;-82
2022/06/04 07:56:56;;;;;;;16.23;6.78;;;;;;;;;;6225246;22;20487;-83
2022/06/04 07:59:23;;;;;;;7.68;6.50;;;;;;;;;;6276298;22;20004;-81
2022/06/04 08:01:49;;;;;;;13.27;7.68;;;;;;;;;;6275815;22;20003;-83
2022/06/04 08:04:14;;;;;;;12.52;7.05;;;;;;;;;;6276391;22;20007;-81
2022/06/04 08:06:40;;;;;;;11.48;6.60;;;;;;;;;;6249718;22;20303;-82
2022/06/04 08:09:06;;;;;;;14.35;6.60;;;;;;;;;;6248991;22;20004;-83
2022/06/04 08:11:31;;;;;;;10.40;6.95;;;;;;;;;;6275841;22;20048;-83
2022/06/04 08:14:19;;;;;;;11.38;7.07;;;;;;;;;;6275849;22;20053;-82
2022/06/04 08:16:51;;;;;;;13.73;7.38;;;;;;;;;;6275317;22;20012;-82
2022/06/04 08:19:17;;;;;;;11.63;6.70;;;;;;;;;;6249527;22;20000;-83
2022/06/04 08:21:43;;;;;;;10.77;7.57;;;;;;;;;;6275804;22;20000;-83
2022/06/04 08:24:09;;;;;;;11.10;7.60;;;;;;;;;;6276250;22;20008;-83
2022/06/04 08:26:34;;;;;;;10.18;7.07;;;;;;;;;;6275785;22;20433;-82
2022/06/04 08:29:00;;;;;;;15.43;8.25;;;;;;;;;;6251306;22;20023;-82
2022/06/04 08:31:25;;;;;;;14.52;8.05;;;;;;;;;;6248682;22;20003;-83
2022/06/04 08:33:50;;;;;;;15.73;7.97;;;;;;;;;;6275530;22;19995;-82
2022/06/04 08:36:16;;;;;;;13.43;7.85;;;;;;;;;;6223779;22;20004;-82
2022/06/04 08:38:42;;;;;;;12.07;7.82;;;;;;;;;;6275777;22;19995;-83
2022/06/04 08:41:17;;;;;;;14.30;8.27;;;;;;;;;;6223872;22;20004;-83
2022/06/04 08:43:52;;;;;;;13.88;7.55;;;;;;;;;;6275280;22;20035;-82
2022/06/04 08:46:36;;;;;;;10.15;7.50;;;;;;;;;;6275598;22;20003;-83
2022/06/04 08:49:11;;;;;;;12.63;8.43;;;;;;;;;;6226087;22;20057;-82
2022/06/04 08:51:37;;;;;;;10.30;8.05;;;;;;;;;;6226161;22;20007;-83
2022/06/04 08:57:32;;;;;;;12.60;7.93;;;;;;;;;;6223204;22;20000;-83
2022/06/04 08:59:51;;;;;;;11.05;8.65;;;;;;;;;;6252455;22;20038;-83
2022/06/04 09:02:22;;;;;;;16.55;8.27;;;;;;;;;;6249803;22;20134;-83
2022/06/04 09:04:48;;;;;;;11.57;8.35;;;;;;;;;;6248913;22;20015;-83
2022/06/04 09:07:17;;;;;;;12.07;8.77;;;;;;;;;;6275954;22;19999;-82
2022/06/04 09:09:52;;;;;;;;;;;;;;;;;;6249299;22;20004;-83
2022/06/04 09:12:21;;;;;;;13.75;8.20;;;;;;;;;;6277601;22;19934;-82
2022/06/04 09:14:50;;;;;;;21.23;8.35;;;;;;;;;;6276382;22;20003;-83
2022/06/04 09:17:20;;;;;;;;;;;;;;;;;;6289138;22;20015;-82
2022/06/04 09:19:51;;;;;;;22.00;10.20;;;;;;;;;;6276725;22;19930;-83
2022/06/04 09:22:22;;;;;;;19.15;9.60;;;;;;;;;;6223632;22;19995;-83
2022/06/04 09:24:47;;;;;;;16.95;9.43;;;;;;;;;;6275383;22;20082;-83
2022/06/04 09:27:54;;;;;;;14.30;8.77;;;;;;;;;;6275630;22;20423;-83
2022/06/04 09:30:37;;;;;;;12.90;9.25;;;;;;;;;;6248874;22;20019;-82
2022/06/04 09:33:27;;;;;;;12.13;9.07;;;;;;;;;;6273582;22;20007;-83
2022/06/04 09:35:54;;;;;;;11.65;8.90;;;;;;;;;;6276816;22;20405;-84
2022/06/04 09:38:24;;;;;;;16.15;9.15;;;;;;;;;;6248405;22;20348;-83
2022/06/04 09:41:01;;;;;;;11.90;8.45;;;;;;;;;;6274192;22;20068;-83
2022/06/04 09:43:27;;;;;;;13.30;8.30;;;;;;;;;;6274889;22;20349;-82
2022/06/04 09:45:55;;;;;;;12.48;8.60;;;;;;;;;;6273646;22;20004;-83
2022/06/04 09:48:31;;;;;;;12.25;8.77;;;;;;;;;;6248421;22;20022;-83
2022/06/04 09:50:58;;;;;;;10.32;8.15;;;;;;;;;;6273603;22;20018;-83
2022/06/04 09:53:25;;;;;;;14.68;8.80;;;;;;;;;;6248642;22;20004;-82
2022/06/04 09:55:58;;;;;;;9.93;8.15;;;;;;;;;;6248356;22;20496;-83
2022/06/04 09:58:27;;;;;;;15.95;8.63;;;;;;;;;;6279463;22;20042;-81
2022/06/04 10:00:59;;;;;;;14.32;8.77;;;;;;;;;;6273641;22;20082;-82
2022/06/04 10:03:29;;;;;;;23.42;8.70;;;;;;;;;;6274636;22;20004;-83
2022/06/04 10:06:03;;;;;;;17.63;9.43;;;;;;;;;;6273457;22;20341;-83
2022/06/04 10:08:29;;;;;;;14.30;8.25;;;;;;;;;;6275079;22;20019;-82
2022/06/04 10:11:02;;;;;;;14.10;8.18;;;;;;;;;;6274743;22;20004;-83
2022/06/04 10:13:48;;;;;;;12.15;8.30;;;;;;;;;;6273602;22;20000;-83
2022/06/04 10:16:19;;;;;;;15.77;8.15;;;;;;;;;;6252048;22;20019;-82
2022/06/04 10:19:00;;;;;;;14.43;8.85;;;;;;;;;;6223222;22;20338;-83
2022/06/04 10:21:35;;;;;;;14.05;8.15;;;;;;;;;;6278372;22;20000;-83
2022/06/04 10:24:00;;;;;;;11.63;8.30;;;;;;;;;;6274835;22;20090;-83
2022/06/04 10:27:01;;;;;;;16.42;8.27;;;;;;;;;;6272918;22;20000;-83
2022/06/04 10:29:54;;;;;;;12.95;9.13;;;;;;;;;;6263068;22;20454;-82
2022/06/04 10:32:56;;;;;;;14.45;9.30;;;;;;;;;;6273134;22;20095;-83
2022/06/04 10:35:49;;;;;;;13.85;7.72;;;;;;;;;;6273586;22;20434;-83
2022/06/04 10:38:30;;;;;;;11.55;8.57;;;;;;;;;;6273711;22;20004;-83
2022/06/04 10:41:23;;;;;;;10.07;8.48;;;;;;;;;;6273022;22;20004;-86
2022/06/04 10:44:10;;;;;;;13.77;8.38;;;;;;;;;;6280151;22;20004;-84
2022/06/04 10:47:12;;;;;;;12.63;8.60;;;;;;;;;;6274573;22;20010;-83
2022/06/04 10:49:43;;;;;;;14.50;8.68;;;;;;;;;;6253887;22;20000;-83
2022/06/04 10:52:17;;;;;;;10.05;7.90;;;;;;;;;;6274880;22;20091;-83
2022/06/04 10:54:48;;;;;;;11.95;8.20;;;;;;;;;;6274457;22;20003;-83
2022/06/04 10:57:23;;;;;;;13.52;7.70;;;;;;;;;;6273885;22;20003;-83
2022/06/04 10:59:54;;;;;;;13.13;7.72;;;;;;;;;;6274579;22;20054;-83
2022/06/04 11:02:43;;;;;;;23.95;8.70;;;;;;;;;;6274582;22;20079;-83
2022/06/04 11:05:34;;;;;;;11.88;8.05;;;;;;;;;;6274848;22;20034;-83
2022/06/04 11:08:18;;;;;;;11.38;7.47;;;;;;;;;;6275301;22;20403;-83
2022/06/04 11:11:14;;;;;;;10.05;7.47;;;;;;;;;;6247710;22;20000;-83
2022/06/04 11:13:42;;;;;;;13.13;8.15;;;;;;;;;;6258458;22;20018;-83
2022/06/04 11:16:30;;;;;;;10.60;7.77;;;;;;;;;;6275177;22;20011;-83
2022/06/04 11:19:13;;;;;;;12.55;7.70;;;;;;;;;;6275206;22;20006;-83
2022/06/04 11:21:53;;;;;;;11.40;7.93;;;;;;;;;;6276235;22;20010;-82
2022/06/04 11:24:27;;;;;;;11.60;7.45;;;;;;;;;;6274478;22;20414;-83
2022/06/04 11:27:18;;;;;;;11.73;6.88;;;;;;;;;;6274972;22;20058;-83
2022/06/04 11:29:45;;;;;;;9.10;7.00;;;;;;;;;;6281193;22;20008;-83
2022/06/04 11:33:13;;;;;;;13.13;7.43;;;;;;;;;;6276332;22;20000;-83
2022/06/04 11:35:54;;;;;;;10.80;7.63;;;;;;;;;;6226480;22;20018;-83
2022/06/04 11:38:43;;;;;;;12.57;8.05;;;;;;;;;;6251830;22;20327;-83
2022/06/04 11:41:14;;;;;;;9.70;7.22;;;;;;;;;;6215964;22;20342;-83
2022/06/04 11:43:54;;;;;;;13.77;7.75;;;;;;;;;;6276131;22;20007;-83
2022/06/04 11:46:38;;;;;;;10.95;6.75;;;;;;;;;;6275277;22;20011;-83
2022/06/04 11:49:13;;;;;;;8.00;6.45;;;;;;;;;;6276240;22;20125;-83
2022/06/04 11:51:57;;;;;;;11.98;7.00;;;;;;;;;;6278796;22;20039;-83
2022/06/04 11:54:47;;;;;;;9.77;6.45;;;;;;;;;;6249979;22;20350;-83
2022/06/04 11:57:32;;;;;;;10.77;6.55;;;;;;;;;;6286361;22;20004;-82
2022/06/04 12:00:19;;;;;;;12.48;7.38;;;;;;;;;;6254575;22;20032;-83
2022/06/04 12:03:19;;;;;;;10.65;7.53;;;;;;;;;;6275708;22;20354;-83
2022/06/04 12:06:04;;;;;;;13.23;6.78;;;;;;;;;;6128272;23;20449;-82
2022/06/04 12:08:37;;;;;;;10.20;7.10;;;;;;;;;;6266652;22;20039;-83
2022/06/04 12:11:24;;;;;;;12.23;7.35;;;;;;;;;;6249282;22;20083;-82
2022/06/04 12:14:15;;;;;;;15.00;7.15;;;;;;;;;;6275162;22;20422;-82
2022/06/04 12:16:49;;;;;;;11.90;7.35;;;;;;;;;;6274417;22;20447;-83
2022/06/04 12:25:00;;;;;;;13.13;7.00;;;;;;;;;;6274747;22;20056;-83
2022/06/04 12:27:26;;;;;;;10.75;6.63;;;;;;;;;;6248910;22;20098;-83
2022/06/04 12:29:55;;;;;;;11.48;6.70;;;;;;;;;;6223959;22;19999;-83
2022/06/04 12:32:21;;;;;;;11.43;6.88;;;;;;;;;;6248888;22;20008;-83
2022/06/04 12:34:48;;;;;;;15.63;7.22;;;;;;;;;;6275831;22;20082;-82
2022/06/04 12:37:27;;;;;;;8.77;6.50;;;;;;;;;;6280376;22;20011;-81
2022/06/04 12:39:53;;;;;;;7.95;6.35;;;;;;;;;;6287989;22;20004;-82
2022/06/04 12:42:19;;;;;;;12.13;6.75;;;;;;;;;;6300464;22;20031;-82
2022/06/04 12:44:55;;;;;;;9.20;6.72;;;;;;;;;;6289818;22;20036;-83
2022/06/04 12:47:29;;;;;;;12.95;6.07;;;;;;;;;;6274222;22;20011;-83
2022/06/04 12:50:18;;;;;;;9.38;6.43;;;;;;;;;;6274125;22;19992;-83
2022/06/04 12:53:06;;;;;;;8.18;6.50;;;;;;;;;;6275676;22;20007;-83
2022/06/04 12:55:39;;;;;;;9.98;6.40;;;;;;;;;;6252745;22;20350;-83
2022/06/04 12:58:26;;;;;;;17.70;5.97;;;;;;;;;;6274043;22;20462;-83
2022/06/04 13:01:00;;;;;;;9.35;6.50;;;;;;;;;;6276946;22;20444;-83
2022/06/04 13:03:31;;;;;;;10.98;6.47;;;;;;;;;;6274039;22;20011;-82
2022/06/04 13:06:12;;;;;;;8.02;6.43;;;;;;;;;;6275106;22;20027;-83
2022/06/04 13:09:12;;;;;;;9.73;7.00;;;;;;;;;;6275423;22;20446;-82
2022/06/04 13:11:54;;;;;;;11.63;6.97;;;;;;;;;;6266123;22;20008;-82
2022/06/04 13:14:26;;;;;;;13.40;6.28;;;;;;;;;;6275208;22;20003;-82
2022/06/04 13:16:55;;;;;;;12.07;6.70;;;;;;;;;;6249221;22;20045;-82
2022/06/04 13:19:49;;;;;;;11.75;6.30;;;;;;;;;;6273921;22;20129;-83
2022/06/04 13:22:17;;;;;;;11.90;6.60;;;;;;;;;;6280750;22;19996;-82
2022/06/04 13:24:42;;;;;;;8.27;6.47;;;;;;;;;;6274253;22;20011;-83
2022/06/04 13:27:12;;;;;;;12.38;6.00;;;;;;;;;;6273774;22;20004;-83
2022/06/04 13:29:37;;;;;;;;;;;;;;;;;;6274220;22;20027;-83
2022/06/04 13:32:11;;;;;;;9.10;5.95;;;;;;;;;;6275217;22;20338;-82
2022/06/04 13:34:36;;;;;;;10.15;6.10;;;;;;;;;;6224679;22;20011;-82
2022/06/04 13:37:07;;;;;;;10.60;6.15;;;;;;;;;;6223161;22;20093;-82
2022/06/04 13:39:34;;;;;;;13.73;6.45;;;;;;;;;;6273631;22;20003;-82
2022/06/04 13:42:01;;;;;;;9.48;6.10;;;;;;;;;;6274930;22;20074;-82
2022/06/04 13:44:27;;;;;;;11.40;6.60;;;;;;;;;;6279298;22;20039;-82
2022/06/04 13:47:16;;;;;;;7.68;5.90;;;;;;;;;;6276533;22;20015;-83
2022/06/04 13:49:46;;;;;;;14.45;6.15;;;;;;;;;;6273692;22;20014;-82
2022/06/04 13:52:23;;;;;;;7.47;6.35;;;;;;;;;;6273409;22;20485;-83
2022/06/04 13:54:48;;;;;;;10.50;6.57;;;;;;;;;;6249572;22;20353;-83
2022/06/04 13:57:38;;;;;;;11.48;6.28;;;;;;;;;;6275259;22;20019;-83
2022/06/04 14:00:05;;;;;;;;;;;;;;;;;;6252212;22;20003;-82
2022/06/04 14:02:30;;;;;;;6.43;5.72;;;;;;;;;;6275497;22;19942;-83
2022/06/04 14:07:43;;;;;;;7.68;6.65;;;;;;;;;;6278527;22;20034;-81
2022/06/04 14:10:20;;;;;;;9.93;6.10;;;;;;;;;;6273430;22;20003;-83
2022/06/04 14:13:00;;;;;;;12.57;5.85;;;;;;;;;;6250014;22;19996;-83
2022/06/04 14:15:39;;;;;;;9.45;6.47;;;;;;;;;;6274918;22;20003;-83
2022/06/04 14:18:23;;;;;;;17.83;6.97;;;;;;;;;;6217893;23;20044;-83
2022/06/04 14:21:30;;;;;;;18.58;6.07;;;;;;;;;;6244107;23;20008;-83
2022/06/04 14:24:47;;;;;;;10.55;6.18;;;;;;;;;;6243957;23;20034;-83
2022/06/04 14:27:18;;;;;;;9.73;5.75;;;;;;;;;;6242705;23;20008;-82
2022/06/04 14:29:46;;;;;;;6.88;6.10;;;;;;;;;;6246467;23;19996;-82
2022/06/04 14:32:24;;;;;;;13.07;6.20;;;;;;;;;;6244970;23;20006;-83
2022/06/04 14:34:49;;;;;;;11.20;6.10;;;;;;;;;;6217388;23;20375;-82
2022/06/04 14:37:26;;;;;;;11.25;5.90;;;;;;;;;;6242757;23;20004;-83
2022/06/04 14:39:51;;;;;;;10.70;5.57;;;;;;;;;;6217503;23;20350;-82
2022/06/04 14:42:39;;;;;;;14.43;5.97;;;;;;;;;;6217275;23;20000;-82
2022/06/04 14:45:22;;;;;;;10.35;5.82;;;;;;;;;;6242837;23;20000;-83
2022/06/04 14:48:09;;;;;;;11.50;6.07;;;;;;;;;;6243693;23;20040;-83
2022/06/04 14:51:05;;;;;;;9.73;5.30;;;;;;;;;;6219474;23;20072;-83
2022/06/04 14:53:31;;;;;;;11.52;5.97;;;;;;;;;;6249346;23;20089;-82
2022/06/04 14:56:46;;;;;;;10.05;5.40;;;;;;;;;;6194890;23;20004;-83
2022/06/04 14:59:11;;;;;;;10.43;6.32;;;;;;;;;;6099625;23;20095;-83
2022/06/04 15:01:38;;;;;;;9.00;5.78;;;;;;;;;;6232647;23;20012;-82
2022/06/04 15:04:31;;;;;;;7.93;5.30;;;;;;;;;;6245816;23;20011;-83
2022/06/04 15:07:06;;;;;;;8.35;5.65;;;;;;;;;;6245807;23;20370;-82
2022/06/04 15:09:37;;;;;;;10.02;5.78;;;;;;;;;;6244542;23;20058;-82
2022/06/04 15:12:23;;;;;;;10.85;5.45;;;;;;;;;;6245642;23;20027;-83
2022/06/04 15:15:07;;;;;;;6.95;5.80;;;;;;;;;;6220004;23;20004;-82
2022/06/04 15:17:56;;;;;;;8.15;5.80;;;;;;;;;;6264398;22;20012;-82
2022/06/04 15:20:36;;;;;;;9.27;6.07;;;;;;;;;;6275577;22;20088;-83
2022/06/04 15:23:04;;;;;;;;;;;;;;;;;;6275758;22;20023;-82
2022/06/04 15:26:00;;;;;;;8.85;6.05;;;;;;;;;;6274966;22;19913;-82